Time;durP1;ratioP1;P1;durP2;ratioP2;P2;SDS_P1;SDS_P2;PMS_P1;PMS_P2;Temp;Humidity;BMP_temperature;BMP_pressure;BME280_temperature;BME280_humidity;BME280_pressure;Samples;Min_cycle;Max_cycle;Signal;HPM_P1;HPM_P2
2021/06/19 00:00:15;;;;;;;4.42;2.60;;;;;;;21.08;57.25;99849.81;1669069;85;21188;-42
2021/06/19 00:02:43;;;;;;;6.72;2.87;;;;;;;21.05;57.38;99849.28;1669181;85;21123;-43
2021/06/19 00:05:11;;;;;;;6.87;2.62;;;;;;;21.01;57.60;99849.91;1670786;85;21590;-42
2021/06/19 00:07:38;;;;;;;6.10;2.35;;;;;;;20.98;57.50;99845.24;1670105;85;21546;-43
2021/06/19 00:10:07;;;;;;;6.72;2.42;;;;;;;20.94;57.40;99842.36;1665063;85;21018;-43
2021/06/19 00:14:16;;;;;;;6.22;2.42;;;;;;;20.93;57.57;99836.66;1774391;79;22626;-42
2021/06/19 00:16:43;;;;;;;6.47;2.40;;;;;;;20.81;57.81;99840.80;1746226;82;20955;-42
2021/06/19 00:19:10;;;;;;;7.83;2.60;;;;;;;20.79;57.93;99847.31;1746263;82;21197;-42
2021/06/19 00:21:36;;;;;;;3.37;2.45;;;;;;;20.76;57.91;99844.02;1746212;82;20951;-42
2021/06/19 00:24:05;;;;;;;4.22;2.40;;;;;;;20.75;58.27;99838.32;1746250;82;21506;-42
2021/06/19 00:26:32;;;;;;;5.37;2.50;;;;;;;20.71;58.12;99838.38;1746227;82;20967;-42
2021/06/19 00:28:58;;;;;;;4.20;2.15;;;;;;;20.69;58.09;99833.09;1746233;82;21592;-42
2021/06/19 00:31:25;;;;;;;4.20;2.75;;;;;;;20.68;58.26;99838.41;1746350;82;21128;-42
2021/06/19 00:33:52;;;;;;;5.80;2.62;;;;;;;20.64;58.55;99831.58;1746082;82;20975;-42
2021/06/19 00:36:18;;;;;;;7.78;2.47;;;;;;;20.61;58.51;99838.53;1746362;82;21002;-42
2021/06/19 00:38:45;;;;;;;9.70;2.95;;;;;;;20.60;58.59;99834.99;1746391;82;21510;-42
2021/06/19 00:41:12;;;;;;;6.03;2.47;;;;;;;20.59;58.69;99834.02;1746181;81;21560;-42
2021/06/19 00:43:39;;;;;;;5.75;2.37;;;;;;;20.58;58.98;99839.34;1746368;82;21907;-42
2021/06/19 00:46:05;;;;;;;6.55;2.47;;;;;;;20.56;58.76;99832.11;1746289;82;21015;-42
2021/06/19 00:48:32;;;;;;;7.37;2.47;;;;;;;20.56;59.05;99834.86;1746485;82;21042;-42
2021/06/19 00:50:59;;;;;;;4.70;2.05;;;;;;;20.56;59.08;99830.73;1746062;82;20971;-42
2021/06/19 00:53:26;;;;;;;5.35;2.42;;;;;;;20.54;59.10;99829.75;1755706;80;21066;-42
2021/06/19 00:55:52;;;;;;;5.75;2.37;;;;;;;20.53;59.31;99826.81;1756809;81;21965;-42
2021/06/19 00:58:19;;;;;;;4.00;2.52;;;;;;;20.52;59.28;99830.00;1750899;81;21518;-42
2021/06/19 01:00:45;;;;;;;5.12;2.27;;;;;;;20.52;59.31;99831.38;1757000;81;21005;-42
2021/06/19 01:03:12;;;;;;;6.05;2.55;;;;;;;20.48;59.23;99828.66;1756903;81;21275;-42
2021/06/19 01:05:39;;;;;;;6.55;2.33;;;;;;;20.46;59.40;99826.14;1703489;81;21028;-42
2021/06/19 01:08:06;;;;;;;4.65;2.15;;;;;;;20.43;59.46;99824.23;1756760;81;21081;-42
2021/06/19 01:10:33;;;;;;;4.47;2.40;;;;;;;20.38;59.59;99824.85;1756816;81;21031;-42
2021/06/19 01:13:00;;;;;;;4.25;2.58;;;;;;;20.11;59.65;99784.69;1752290;81;21011;-42
2021/06/19 01:15:28;;;;;;;4.87;2.60;;;;;;;20.34;59.76;99821.37;1743841;82;21526;-42
2021/06/19 01:17:56;;;;;;;6.33;3.10;;;;;;;20.31;59.94;99823.59;1743932;82;21061;-42
2021/06/19 01:20:22;;;;;;;9.23;2.70;;;;;;;20.28;59.88;99818.86;1762960;80;21066;-42
2021/06/19 01:22:56;;;;;;;8.05;2.52;;;;;;;20.26;60.04;99822.64;1774662;80;20985;-42
2021/06/19 01:25:23;;;;;;;3.85;2.40;;;;;;;20.22;60.09;99821.91;1773318;80;20878;-42
2021/06/19 01:27:52;;;;;;;5.55;2.95;;;;;;;20.21;60.19;99819.56;1773169;80;21064;-42
2021/06/19 01:30:23;;;;;;;2.85;2.50;;;;;;;20.18;60.24;99819.02;1774201;80;21061;-42
2021/06/19 01:32:50;;;;;;;3.27;2.20;;;;;;;20.17;60.36;99820.98;1773614;80;21582;-42
2021/06/19 01:35:17;;;;;;;5.97;2.60;;;;;;;19.88;60.39;99774.37;1773882;80;20989;-42
2021/06/19 01:37:46;;;;;;;5.47;2.37;;;;;;;20.10;60.61;99817.53;1773936;80;20993;-42
2021/06/19 01:40:30;;;;;;;5.25;2.35;;;;;;;20.08;60.70;99814.42;1774005;80;20977;-42
2021/06/19 01:42:58;;;;;;;5.25;2.25;;;;;;;20.05;60.90;99817.98;1774052;80;21515;-42
2021/06/19 01:45:32;;;;;;;7.03;2.80;;;;;;;20.01;61.02;99822.16;1773880;80;21115;-42
2021/06/19 01:48:02;;;;;;;4.37;2.75;;;;;;;19.96;61.19;99811.61;1773879;80;21001;-42
2021/06/19 01:50:30;;;;;;;3.30;2.27;;;;;;;19.94;61.24;99815.38;1773987;80;20967;-42
2021/06/19 01:52:58;;;;;;;3.67;2.42;;;;;;;19.92;61.31;99822.66;1773935;80;21768;-42
2021/06/19 01:55:25;;;;;;;4.15;2.30;;;;;;;19.92;61.53;99816.38;1773901;80;21053;-42
2021/06/19 01:57:56;;;;;;;5.83;2.50;;;;;;;19.91;61.48;99817.56;1774003;80;21127;-42
2021/06/19 02:00:25;;;;;;;3.42;2.47;;;;;;;19.89;61.67;99818.59;1774051;80;21017;-42
2021/06/19 02:02:52;;;;;;;2.90;2.45;;;;;;;19.87;61.96;99819.58;1773948;80;20985;-42
2021/06/19 02:05:18;;;;;;;4.75;2.40;;;;;;;19.86;61.95;99818.02;1737148;82;20950;-42
2021/06/19 02:07:52;;;;;;;6.78;2.70;;;;;;;19.85;61.90;99821.95;1736986;82;21037;-42
2021/06/19 02:10:24;;;;;;;3.47;2.30;;;;;;;19.84;61.98;99823.95;1774150;80;21105;-42
2021/06/19 02:12:51;;;;;;;5.55;2.55;;;;;;;19.81;62.07;99828.88;1773699;80;21630;-43
2021/06/19 02:15:19;;;;;;;5.42;2.50;;;;;;;19.82;62.09;99821.41;1773835;80;20977;-42
2021/06/19 02:17:46;;;;;;;6.22;2.55;;;;;;;19.82;62.28;99825.53;1773959;80;21072;-42
2021/06/19 02:20:15;;;;;;;5.25;2.50;;;;;;;19.82;62.31;99823.56;1773941;80;21504;-42
2021/06/19 02:22:42;;;;;;;7.50;2.55;;;;;;;19.82;62.44;99821.41;1774056;80;21105;-42
2021/06/19 02:25:12;;;;;;;4.75;2.60;;;;;;;19.81;62.50;99823.38;1736604;82;21579;-42
2021/06/19 02:27:52;;;;;;;5.30;2.17;;;;;;;19.83;62.51;99828.47;1736981;82;20974;-42
2021/06/19 02:30:22;;;;;;;4.80;2.90;;;;;;;19.82;62.57;99827.69;1736913;82;21025;-42
2021/06/19 02:32:49;;;;;;;;;;;;;;;19.82;62.75;99822.78;1739702;82;21554;-42
2021/06/19 02:35:18;;;;;;;6.42;2.55;;;;;;;19.82;62.67;99825.53;1724654;83;21139;-42
2021/06/19 02:37:45;;;;;;;4.25;2.33;;;;;;;19.73;62.95;99830.16;1724112;83;21056;-42
2021/06/19 02:40:12;;;;;;;4.50;2.75;;;;;;;19.77;62.89;99827.36;1724121;83;21027;-42
2021/06/19 02:42:41;;;;;;;8.18;2.70;;;;;;;19.79;63.07;99827.73;1723944;83;21049;-42
2021/06/19 02:45:12;;;;;;;5.60;2.67;;;;;;;19.80;62.94;99826.55;1724167;83;21041;-42
2021/06/19 02:47:44;;;;;;;6.60;2.70;;;;;;;19.80;63.02;99830.69;1724287;83;21133;-43
2021/06/19 02:50:12;;;;;;;9.38;2.98;;;;;;;19.81;62.97;99825.34;1724051;83;21618;-42
2021/06/19 02:52:43;;;;;;;4.83;2.55;;;;;;;19.81;62.95;99828.88;1724006;83;21089;-42
2021/06/19 02:55:16;;;;;;;4.97;2.77;;;;;;;19.83;63.20;99831.23;1723968;83;21290;-42
2021/06/19 02:57:42;;;;;;;6.78;2.70;;;;;;;19.83;63.16;99828.47;1724139;83;21045;-42
2021/06/19 03:00:12;;;;;;;6.85;2.47;;;;;;;19.86;63.21;99824.89;1724106;83;21816;-42
2021/06/19 03:02:39;;;;;;;4.72;2.75;;;;;;;19.90;63.07;99825.63;1724283;83;21096;-42
2021/06/19 03:05:09;;;;;;;4.55;2.20;;;;;;;19.95;62.99;99832.05;1724156;83;21046;-42
2021/06/19 03:07:36;;;;;;;4.78;2.52;;;;;;;19.97;62.84;99836.56;1724078;83;21036;-43
2021/06/19 03:10:05;;;;;;;4.75;2.45;;;;;;;19.99;62.92;99838.33;1724221;83;21550;-42
2021/06/19 03:12:32;;;;;;;7.28;2.70;;;;;;;20.00;62.81;99845.36;1724313;83;21169;-42
2021/06/19 03:14:59;;;;;;;4.03;2.50;;;;;;;20.01;62.69;99846.94;1713688;83;20977;-42
2021/06/19 03:17:25;;;;;;;5.55;2.58;;;;;;;20.03;62.73;99847.31;1712775;83;21559;-42
2021/06/19 03:19:52;;;;;;;4.25;2.35;;;;;;;20.04;62.83;99850.26;1712800;83;21267;-42
2021/06/19 03:22:20;;;;;;;7.95;2.58;;;;;;;20.05;62.84;99855.92;1712876;83;21108;-42
2021/06/19 03:24:46;;;;;;;4.22;2.87;;;;;;;20.07;62.77;99852.18;1712750;83;21965;-42
2021/06/19 03:27:14;;;;;;;4.47;2.85;;;;;;;20.08;62.71;99850.99;1712900;83;21005;-42
2021/06/19 03:29:43;;;;;;;7.35;2.95;;;;;;;20.10;63.12;99854.09;1712814;83;23915;-42
2021/06/19 03:32:10;;;;;;;4.45;2.60;;;;;;;20.12;62.86;99851.72;1712565;83;21006;-42
2021/06/19 03:34:41;;;;;;;3.50;2.45;;;;;;;20.13;62.83;99849.16;1712952;83;21108;-42
2021/06/19 03:37:08;;;;;;;5.60;2.80;;;;;;;20.14;62.93;99845.81;1712802;83;21088;-42
2021/06/19 03:39:35;;;;;;;10.72;3.00;;;;;;;20.15;63.00;99843.22;1712495;83;21051;-42
2021/06/19 03:42:03;;;;;;;7.75;3.22;;;;;;;20.16;63.12;99851.08;1712808;83;21484;-42
2021/06/19 03:44:30;;;;;;;4.17;2.77;;;;;;;20.17;63.24;99849.89;1713164;83;21077;-42
2021/06/19 03:46:57;;;;;;;6.28;2.40;;;;;;;20.19;63.25;99848.87;1712802;83;21607;-42
2021/06/19 03:49:25;;;;;;;8.58;3.10;;;;;;;20.23;63.39;99852.38;1712806;83;21507;-42
2021/06/19 03:51:52;;;;;;;5.53;2.70;;;;;;;20.25;63.20;99854.11;1712619;83;20914;-43
2021/06/19 03:54:20;;;;;;;4.85;2.95;;;;;;;20.27;63.06;99855.87;1712751;83;21104;-42
2021/06/19 03:56:46;;;;;;;5.47;2.83;;;;;;;20.29;62.95;99850.71;1712792;83;21081;-42
2021/06/19 03:59:13;;;;;;;6.58;3.05;;;;;;;20.31;63.12;99847.58;1713048;83;21029;-42
2021/06/19 04:01:41;;;;;;;7.37;3.47;;;;;;;20.34;62.90;99855.01;1712651;83;21183;-42
2021/06/19 04:04:08;;;;;;;5.95;3.00;;;;;;;20.36;62.86;99855.39;1712646;83;21033;-42
2021/06/19 04:06:34;;;;;;;7.15;3.00;;;;;;;20.39;62.87;99852.58;1712809;83;21050;-42
2021/06/19 04:09:01;;;;;;;4.92;3.00;;;;;;;20.43;62.95;99862.79;1712596;83;20964;-42
2021/06/19 04:11:29;;;;;;;7.55;3.20;;;;;;;20.46;62.90;99861.36;1712666;83;21065;-42
2021/06/19 04:13:56;;;;;;;8.90;3.80;;;;;;;20.50;62.53;99858.55;1713368;83;21153;-43
2021/06/19 04:16:23;;;;;;;5.35;3.17;;;;;;;20.53;62.57;99857.70;1715048;83;20946;-42
2021/06/19 04:18:50;;;;;;;5.62;2.58;;;;;;;20.58;62.60;99864.13;1715022;83;21013;-42
2021/06/19 04:21:17;;;;;;;6.50;3.05;;;;;;;20.61;62.50;99865.48;1714907;83;20954;-43
2021/06/19 04:23:44;;;;;;;5.05;2.80;;;;;;;20.68;62.51;99865.96;1715087;83;21038;-43
2021/06/19 04:26:11;;;;;;;3.77;2.65;;;;;;;20.75;62.51;99863.13;1714903;83;21200;-43
2021/06/19 04:28:38;;;;;;;6.08;2.95;;;;;;;20.85;62.48;99864.16;1714972;83;21037;-43
2021/06/19 04:31:04;;;;;;;6.55;2.85;;;;;;;20.98;61.96;99862.38;1714953;83;21515;-43
2021/06/19 04:33:31;;;;;;;8.03;3.25;;;;;;;21.08;61.28;99863.59;1715029;83;21510;-43
2021/06/19 04:35:57;;;;;;;5.45;3.33;;;;;;;21.16;61.10;99860.92;1714963;83;21041;-43
2021/06/19 04:38:24;;;;;;;6.05;2.87;;;;;;;21.25;61.12;99861.17;1715194;83;21029;-43
2021/06/19 04:41:01;;;;;;;6.03;2.92;;;;;;;21.35;60.95;99866.33;1714781;83;21025;-42
2021/06/19 04:43:33;;;;;;;4.83;2.60;;;;;;;21.42;60.59;99864.84;1715025;83;21574;-42
2021/06/19 04:45:54;;;;;;;6.62;2.67;;;;;;;21.48;60.54;99859.62;1714463;83;21112;-42
2021/06/19 04:48:21;;;;;;;6.75;3.20;;;;;;;21.52;60.06;99861.72;1715141;83;21053;-42
2021/06/19 04:50:48;;;;;;;7.65;2.52;;;;;;;21.56;59.93;99870.70;1714804;83;21191;-42
2021/06/19 04:53:15;;;;;;;6.45;2.67;;;;;;;21.60;60.27;99864.52;1714927;83;21046;-43
2021/06/19 04:55:42;;;;;;;5.75;2.60;;;;;;;21.66;60.29;99858.10;1715063;83;21543;-43
2021/06/19 04:58:09;;;;;;;7.60;2.85;;;;;;;21.73;59.94;99861.94;1715049;83;21010;-43
2021/06/19 05:00:36;;;;;;;5.80;2.50;;;;;;;21.77;59.31;99866.19;1715269;83;21033;-42
2021/06/19 05:03:06;;;;;;;4.95;2.60;;;;;;;21.80;59.54;99862.58;1715211;83;21206;-43
2021/06/19 05:05:34;;;;;;;4.67;2.72;;;;;;;21.84;59.92;99856.98;1715159;83;20977;-43
2021/06/19 05:08:01;;;;;;;5.28;2.10;;;;;;;21.92;59.94;99856.45;1715191;83;21807;-43
2021/06/19 05:10:28;;;;;;;8.53;2.60;;;;;;;22.03;59.88;99852.88;1715277;83;21089;-43
2021/06/19 05:12:56;;;;;;;4.72;2.72;;;;;;;22.15;59.57;99849.31;1715094;83;21057;-43
2021/06/19 05:15:26;;;;;;;5.78;2.72;;;;;;;22.27;59.00;99850.81;1715078;83;21152;-43
2021/06/19 05:17:56;;;;;;;4.75;2.77;;;;;;;22.39;59.30;99853.54;1715542;83;21029;-43
2021/06/19 05:20:26;;;;;;;5.30;2.37;;;;;;;22.51;58.90;99855.66;1715171;83;20995;-43
2021/06/19 05:22:51;;;;;;;6.25;3.00;;;;;;;;;;1715521;83;21041;-43
2021/06/19 05:25:18;;;;;;;4.12;2.35;;;;;;;22.70;57.23;99849.34;1720575;83;21020;-43
2021/06/19 05:27:44;;;;;;;4.72;2.58;;;;;;;22.75;57.57;99848.05;1702177;84;21105;-43
2021/06/19 05:30:13;;;;;;;5.00;2.62;;;;;;;22.81;57.58;99840.78;1717287;83;21045;-43
2021/06/19 05:32:40;;;;;;;7.78;2.52;;;;;;;22.90;57.93;99835.42;1720834;83;21095;-43
2021/06/19 05:35:08;;;;;;;5.58;2.67;;;;;;;22.98;58.01;99841.58;1701718;84;21520;-43
2021/06/19 05:37:35;;;;;;;6.25;2.40;;;;;;;23.07;57.50;99835.63;1717681;83;21056;-43
2021/06/19 05:40:04;;;;;;;6.72;2.62;;;;;;;23.16;57.35;99844.69;1720543;83;21140;-43
2021/06/19 05:42:32;;;;;;;7.10;2.40;;;;;;;23.23;56.34;99833.46;1702353;84;21033;-43
2021/06/19 05:44:58;;;;;;;6.28;2.60;;;;;;;23.28;56.60;99841.23;1717600;83;21543;-43
2021/06/19 05:47:25;;;;;;;5.25;2.70;;;;;;;23.31;56.33;99848.06;1717578;83;21003;-43
2021/06/19 05:49:52;;;;;;;4.17;2.60;;;;;;;23.35;56.29;99849.34;1717622;82;21057;-43
2021/06/19 05:52:21;;;;;;;6.37;2.87;;;;;;;23.39;56.50;99841.72;1717787;83;21139;-43
2021/06/19 05:54:48;;;;;;;5.75;2.45;;;;;;;23.46;56.32;99846.34;1717716;82;20989;-43
2021/06/19 05:57:15;;;;;;;5.90;2.62;;;;;;;23.52;55.92;99848.16;1717877;82;21081;-43
2021/06/19 05:59:42;;;;;;;5.90;2.98;;;;;;;23.56;56.41;99847.45;1766886;81;20961;-43
2021/06/19 06:02:09;;;;;;;3.70;2.40;;;;;;;23.65;56.15;99849.59;1766850;81;21057;-43
2021/06/19 06:04:36;;;;;;;3.90;2.25;;;;;;;23.73;55.96;99857.86;1766765;81;21121;-43
2021/06/19 06:07:03;;;;;;;6.53;2.52;;;;;;;23.78;56.16;99853.19;1766827;81;20996;-43
2021/06/19 06:09:30;;;;;;;3.95;2.55;;;;;;;23.85;55.91;99854.98;1738721;81;21065;-43
2021/06/19 06:11:57;;;;;;;6.25;2.52;;;;;;;23.93;55.21;99856.34;1766935;81;21045;-43
2021/06/19 06:14:24;;;;;;;4.75;2.30;;;;;;;23.76;55.20;99832.87;1768637;80;21037;-43
2021/06/19 06:16:50;;;;;;;6.05;2.20;;;;;;;24.04;54.89;99865.92;1773840;80;21137;-43
2021/06/19 06:19:19;;;;;;;7.92;2.42;;;;;;;24.10;54.65;99871.70;1737042;82;20965;-43
2021/06/19 06:21:47;;;;;;;6.08;2.50;;;;;;;24.16;54.38;99867.16;1737049;82;21046;-43
2021/06/19 06:24:16;;;;;;;4.90;2.42;;;;;;;24.25;54.58;99866.71;1736822;82;21002;-43
2021/06/19 06:26:43;;;;;;;8.90;2.40;;;;;;;24.31;53.67;99869.72;1736911;82;21005;-43
2021/06/19 06:29:11;;;;;;;6.47;2.50;;;;;;;24.37;53.95;99869.35;1736960;82;21123;-43
2021/06/19 06:31:38;;;;;;;5.53;2.30;;;;;;;24.44;53.86;99869.16;1736773;82;21007;-43
2021/06/19 06:34:04;;;;;;;7.12;2.17;;;;;;;24.51;53.60;99860.61;1736952;82;21081;-43
2021/06/19 06:36:31;;;;;;;6.00;2.87;;;;;;;24.59;53.49;99865.35;1736898;82;20954;-42
2021/06/19 06:39:02;;;;;;;5.95;2.20;;;;;;;24.67;53.62;99861.14;1736799;82;21038;-43
2021/06/19 06:41:26;;;;;;;5.85;2.17;;;;;;;24.77;53.88;99861.42;1736601;82;21156;-43
2021/06/19 06:43:53;;;;;;;7.67;2.58;;;;;;;24.87;53.09;99851.24;1736776;82;21024;-43
2021/06/19 06:46:20;;;;;;;9.40;2.35;;;;;;;24.98;52.04;99854.46;1736963;82;21558;-43
2021/06/19 06:48:48;;;;;;;5.62;2.25;;;;;;;25.06;51.41;99854.39;1737184;82;21015;-43
2021/06/19 06:51:15;;;;;;;10.05;2.65;;;;;;;25.13;51.12;99856.91;1736872;82;21093;-43
2021/06/19 06:53:42;;;;;;;6.70;2.17;;;;;;;25.21;50.76;99853.31;1708390;84;21986;-43
2021/06/19 06:56:09;;;;;;;3.90;2.40;;;;;;;25.30;51.18;99850.02;1757035;81;20978;-43
2021/06/19 06:58:35;;;;;;;4.65;2.00;;;;;;;25.42;51.94;99853.97;1757101;81;21014;-43
2021/06/19 07:01:02;;;;;;;4.58;2.00;;;;;;;25.54;51.59;99851.78;1757003;81;21046;-43
2021/06/19 07:03:29;;;;;;;7.50;2.70;;;;;;;25.68;50.91;99856.09;1679831;85;21078;-43
2021/06/19 07:05:55;;;;;;;4.10;2.10;;;;;;;25.81;51.02;99851.26;1757065;81;21931;-43
2021/06/19 07:08:22;;;;;;;6.35;2.72;;;;;;;25.91;50.27;99849.49;1757426;81;21543;-43
2021/06/19 07:10:50;;;;;;;8.20;2.33;;;;;;;26.01;50.13;99849.55;1757006;81;21017;-43
2021/06/19 07:13:18;;;;;;;6.47;2.33;;;;;;;26.08;49.51;99850.09;1757038;81;21038;-43
2021/06/19 07:15:44;;;;;;;6.97;2.40;;;;;;;26.11;49.62;99847.78;1757192;81;21042;-43
2021/06/19 07:18:12;;;;;;;7.70;2.27;;;;;;;26.18;49.87;99850.31;1679729;84;21098;-43
2021/06/19 07:20:39;;;;;;;7.83;2.55;;;;;;;26.29;49.82;99848.53;1757033;81;21006;-43
2021/06/19 07:23:05;;;;;;;9.35;2.60;;;;;;;26.42;48.91;99848.47;1679738;85;21572;-43
2021/06/19 07:25:32;;;;;;;6.30;2.00;;;;;;;26.53;49.02;99855.15;1756993;81;21013;-43
2021/06/19 07:27:59;;;;;;;7.45;2.20;;;;;;;26.63;48.44;99855.97;1757079;81;20998;-43
2021/06/19 07:30:26;;;;;;;4.55;2.33;;;;;;;26.71;48.21;99850.31;1679803;85;21148;-43
2021/06/19 07:32:55;;;;;;;7.45;2.35;;;;;;;26.79;47.79;99846.78;1770064;80;20978;-43
2021/06/19 07:35:23;;;;;;;6.70;2.55;;;;;;;26.87;47.80;99854.25;1774173;80;20965;-43
2021/06/19 07:37:50;;;;;;;5.95;2.55;;;;;;;26.96;46.84;99851.52;1773890;80;21267;-43
2021/06/19 07:40:18;;;;;;;6.30;2.77;;;;;;;27.01;46.12;99851.53;1774060;80;21072;-43
2021/06/19 07:42:44;;;;;;;6.87;2.60;;;;;;;27.03;46.05;99856.78;1773881;80;21783;-43
2021/06/19 07:45:13;;;;;;;5.05;2.83;;;;;;;27.07;45.33;99853.84;1773837;80;21000;-43
2021/06/19 07:47:39;;;;;;;10.50;2.50;;;;;;;27.07;45.91;99847.67;1773816;80;21083;-43
2021/06/19 07:50:07;;;;;;;11.95;2.87;;;;;;;27.07;45.65;99842.71;1773884;80;21566;-43
2021/06/19 07:52:34;;;;;;;7.30;2.60;;;;;;;27.10;45.36;99851.55;1757719;80;21017;-43
2021/06/19 07:55:01;;;;;;;18.62;2.92;;;;;;;27.11;45.66;99844.77;1742917;82;21127;-43
2021/06/19 07:57:29;;;;;;;9.53;2.70;;;;;;;27.19;45.84;99846.78;1743283;82;21012;-43
2021/06/19 07:59:56;;;;;;;10.58;2.95;;;;;;;27.23;45.99;99843.23;1743289;82;21550;-43
2021/06/19 08:02:22;;;;;;;9.35;2.90;;;;;;;27.29;45.95;99838.44;1743249;82;21648;-43
2021/06/19 08:04:49;;;;;;;8.73;2.47;;;;;;;27.37;46.29;99839.06;1743598;82;20982;-43
2021/06/19 08:07:16;;;;;;;5.55;2.72;;;;;;;27.47;46.02;99841.25;1743072;82;21140;-43
2021/06/19 08:09:45;;;;;;;5.42;2.65;;;;;;;27.57;45.56;99831.69;1743054;82;20956;-43
2021/06/19 08:12:11;;;;;;;4.30;2.60;;;;;;;27.64;45.84;99839.11;1743549;82;21004;-43
2021/06/19 08:14:39;;;;;;;8.35;2.83;;;;;;;27.73;46.07;99835.57;1743084;82;21546;-43
2021/06/19 08:17:15;;;;;;;5.08;2.72;;;;;;;27.85;46.28;99836.02;1743259;82;21052;-43
2021/06/19 08:19:37;;;;;;;9.33;2.87;;;;;;;27.96;45.63;99828.58;1742567;82;21120;-43
2021/06/19 08:22:05;;;;;;;7.42;2.77;;;;;;;28.08;45.56;99823.44;1743150;82;21031;-43
2021/06/19 08:24:31;;;;;;;7.28;2.45;;;;;;;28.21;45.30;99823.30;1742990;82;21065;-43
2021/06/19 08:26:58;;;;;;;7.75;2.50;;;;;;;28.30;45.02;99821.88;1743255;82;21084;-43
2021/06/19 08:29:25;;;;;;;7.62;2.60;;;;;;;28.40;45.13;99824.80;1743096;82;21017;-43
2021/06/19 08:31:52;;;;;;;11.18;2.77;;;;;;;28.50;45.38;99822.12;1743005;82;21070;-43
2021/06/19 08:34:19;;;;;;;8.00;2.47;;;;;;;28.58;45.15;99819.14;1743120;82;20945;-43
2021/06/19 08:36:46;;;;;;;8.80;3.37;;;;;;;28.68;43.96;99815.07;1743351;82;21024;-43
2021/06/19 08:39:13;;;;;;;9.00;2.90;;;;;;;28.74;44.02;99814.62;1743216;82;21526;-43
2021/06/19 08:41:42;;;;;;;9.83;2.80;;;;;;;28.81;43.80;99817.05;1743364;82;21551;-43
2021/06/19 08:44:10;;;;;;;8.90;3.13;;;;;;;28.86;43.70;99816.41;1743596;82;21960;-43
2021/06/19 08:46:37;;;;;;;4.78;2.58;;;;;;;28.90;44.05;99810.02;1743414;82;20898;-43
2021/06/19 08:49:04;;;;;;;4.50;2.62;;;;;;;28.94;43.76;99817.62;1743285;82;21527;-43
2021/06/19 08:51:33;;;;;;;4.97;2.80;;;;;;;29.00;43.52;99805.80;1745205;80;20993;-43
2021/06/19 08:54:00;;;;;;;7.37;3.30;;;;;;;29.04;43.92;99809.96;1687659;84;21042;-43
2021/06/19 08:56:26;;;;;;;15.20;3.58;;;;;;;29.08;43.19;99812.56;1762965;81;21135;-43
2021/06/19 08:58:53;;;;;;;9.28;3.30;;;;;;;29.12;43.00;99798.58;1762673;81;21011;-43
2021/06/19 09:01:20;;;;;;;9.83;3.65;;;;;;;29.20;43.50;99800.38;1687775;85;21096;-43
2021/06/19 09:03:47;;;;;;;8.68;3.75;;;;;;;29.26;43.41;99796.46;1762852;81;21069;-43
2021/06/19 09:06:25;;;;;;;5.62;3.80;;;;;;;29.30;42.81;99803.25;1687616;85;21021;-43
2021/06/19 09:09:15;;;;;;;5.28;3.40;;;;;;;29.36;43.02;99804.18;1687692;85;21795;-43
2021/06/19 09:11:53;;;;;;;7.12;3.62;;;;;;;29.46;42.66;99793.08;1762720;81;20966;-43
2021/06/19 09:14:25;;;;;;;6.47;4.15;;;;;;;29.57;42.62;99802.31;1762704;81;20962;-43
2021/06/19 09:17:01;;;;;;;8.70;4.28;;;;;;;29.66;41.87;99802.23;1761779;81;21512;-43
2021/06/19 09:19:35;;;;;;;9.48;3.95;;;;;;;29.68;41.66;99792.11;1687116;84;21049;-43
2021/06/19 09:22:19;;;;;;;8.18;4.15;;;;;;;29.72;41.86;99792.71;1762850;80;21135;-43
2021/06/19 09:24:52;;;;;;;10.72;4.70;;;;;;;29.74;41.58;99788.80;1687612;85;21551;-43
2021/06/19 09:27:33;;;;;;;8.65;4.83;;;;;;;29.72;41.28;99784.33;1762741;81;21306;-43
2021/06/19 09:30:11;;;;;;;7.60;4.60;;;;;;;29.75;40.92;99784.75;1687737;84;21694;-43
2021/06/19 09:32:50;;;;;;;10.80;4.33;;;;;;;29.80;41.05;99790.30;1763119;81;21583;-43
2021/06/19 09:35:29;;;;;;;8.40;4.80;;;;;;;29.86;40.67;99774.41;1687795;85;21136;-43
2021/06/19 09:38:14;;;;;;;10.00;4.58;;;;;;;29.87;39.45;99775.19;1762924;81;23660;-43
2021/06/19 09:40:44;;;;;;;7.80;4.08;;;;;;;29.80;40.28;99783.31;1762750;81;21057;-43
2021/06/19 09:43:17;;;;;;;7.40;4.30;;;;;;;29.74;39.74;99783.20;1762684;81;21636;-43
2021/06/19 09:46:05;;;;;;;4.70;3.60;;;;;;;29.71;40.37;99784.18;1687776;85;21034;-43
2021/06/19 09:48:50;;;;;;;6.73;3.97;;;;;;;29.71;40.53;99781.38;1763163;80;21753;-43
2021/06/19 09:51:22;;;;;;;6.92;3.77;;;;;;;29.74;40.41;99783.83;1686814;84;21040;-43
2021/06/19 09:53:52;;;;;;;10.08;3.92;;;;;;;29.82;40.61;99773.06;1762736;80;21065;-43
2021/06/19 09:56:21;;;;;;;9.83;3.77;;;;;;;29.89;40.02;99777.66;1762732;81;21077;-43
2021/06/19 09:58:57;;;;;;;7.75;3.80;;;;;;;29.94;39.51;99773.41;1762914;81;21611;-43
2021/06/19 10:01:34;;;;;;;6.72;3.35;;;;;;;29.95;39.88;99774.97;1687511;84;21124;-43
2021/06/19 10:04:02;;;;;;;7.03;3.70;;;;;;;30.00;40.52;99773.67;1762781;81;21046;-43
2021/06/19 10:06:29;;;;;;;4.83;3.08;;;;;;;30.10;39.44;99770.92;1687541;85;21531;-43
2021/06/19 10:08:57;;;;;;;8.50;3.70;;;;;;;30.12;39.27;99774.61;1762696;81;20970;-43
2021/06/19 10:11:26;;;;;;;5.72;3.45;;;;;;;30.11;38.73;99767.50;1687815;85;21555;-43
2021/06/19 10:13:56;;;;;;;6.58;3.17;;;;;;;30.06;38.24;99764.75;1762877;81;21142;-43
2021/06/19 10:16:28;;;;;;;5.85;3.20;;;;;;;30.04;38.62;99765.08;1705084;83;21052;-43
2021/06/19 10:18:53;;;;;;;5.80;3.05;;;;;;;30.01;39.69;99768.85;1719786;83;20984;-43
2021/06/19 10:21:21;;;;;;;6.80;3.00;;;;;;;29.93;39.65;99755.87;1720533;83;21088;-44
2021/06/19 10:23:49;;;;;;;;;;;;;;;29.85;40.17;99762.30;1723272;83;21060;-43
2021/06/19 10:26:21;;;;;;;5.50;3.12;;;;;;;29.86;40.51;99763.85;1720542;83;21203;-43
2021/06/19 10:28:47;;;;;;;6.45;3.00;;;;;;;29.77;40.45;99764.06;1750128;82;20925;-43
2021/06/19 10:31:17;;;;;;;6.58;3.10;;;;;;;29.88;40.25;99762.10;1750992;82;21092;-43
2021/06/19 10:33:43;;;;;;;6.87;3.00;;;;;;;30.03;40.08;99759.34;1731346;82;21068;-43
2021/06/19 10:36:12;;;;;;;5.95;2.95;;;;;;;30.20;40.47;99763.20;1720545;83;21056;-43
2021/06/19 10:38:57;;;;;;;7.90;3.50;;;;;;;30.37;40.40;99757.85;1720646;82;21126;-43
2021/06/19 10:41:51;;;;;;;8.90;3.05;;;;;;;30.55;39.70;99757.02;1713568;83;21092;-43
2021/06/19 10:44:56;;;;;;;4.90;3.02;;;;;;;30.82;40.21;99755.11;1720636;83;21085;-43
2021/06/19 10:47:25;;;;;;;7.65;2.75;;;;;;;31.11;38.15;99766.22;1720030;83;21001;-43
2021/06/19 10:49:52;;;;;;;6.75;2.98;;;;;;;31.30;38.87;99756.27;1750561;82;23961;-43
2021/06/19 10:52:30;;;;;;;7.58;2.90;;;;;;;31.48;38.54;99755.95;1720592;83;21123;-43
2021/06/19 10:55:14;;;;;;;6.17;2.50;;;;;;;31.52;36.84;99753.58;1720458;83;20988;-43
2021/06/19 10:57:53;;;;;;;4.22;2.25;;;;;;;31.49;36.89;99756.09;1710890;83;20961;-43
2021/06/19 11:00:45;;;;;;;7.97;2.50;;;;;;;31.36;36.79;99720.67;1720805;83;21395;-43
2021/06/19 11:03:13;;;;;;;6.45;2.77;;;;;;;31.80;37.43;99757.46;1720599;83;21052;-43
2021/06/19 11:05:54;;;;;;;3.85;2.80;;;;;;;32.09;36.08;99746.00;1720668;83;21792;-43
2021/06/19 11:08:21;;;;;;;5.50;2.37;;;;;;;32.40;35.39;99745.84;1720396;83;20977;-44
2021/06/19 11:10:51;;;;;;;10.45;2.87;;;;;;;32.62;35.30;99751.63;1720809;83;20953;-43
2021/06/19 11:13:38;;;;;;;4.95;2.55;;;;;;;32.66;35.10;99754.98;1720558;83;21029;-43
2021/06/19 11:16:06;;;;;;;9.13;3.15;;;;;;;32.53;34.43;99744.17;1717235;83;21061;-43
2021/06/19 11:18:55;;;;;;;8.18;2.65;;;;;;;32.17;35.55;99749.13;1707367;84;21121;-43
2021/06/19 11:21:32;;;;;;;6.62;2.77;;;;;;;31.92;35.82;99749.27;1707403;84;20973;-43
2021/06/19 11:24:04;;;;;;;5.37;2.60;;;;;;;31.77;36.08;99751.42;1773844;80;21060;-43
2021/06/19 11:27:00;;;;;;;7.85;2.50;;;;;;;31.77;36.28;99736.00;1773127;80;21081;-43
2021/06/19 11:29:41;;;;;;;9.03;2.67;;;;;;;31.83;36.06;99742.44;1772613;80;21586;-43
2021/06/19 11:32:29;;;;;;;10.03;4.37;;;;;;;31.86;36.91;99744.23;1773728;80;21137;-43
2021/06/19 11:34:58;;;;;;;4.10;2.60;;;;;;;32.04;36.45;99744.54;1773888;80;21028;-43
2021/06/19 11:38:00;;;;;;;6.58;2.47;;;;;;;32.21;36.57;99744.83;1774047;80;20984;-43
2021/06/19 11:40:30;;;;;;;6.95;2.80;;;;;;;32.33;35.66;99740.85;1772810;80;21021;-43
2021/06/19 11:42:56;;;;;;;6.30;2.60;;;;;;;32.38;36.24;99749.80;1774077;80;21041;-43
2021/06/19 11:45:23;;;;;;;5.40;2.42;;;;;;;32.40;36.32;99750.06;1773949;80;21124;-43